Campeche, México

8:42 PM CDT en Julio 31, 2014 (GMT -0500)
XE3AHB Radio (ICAMPECH2) Alt 102 ft | 19.83 °N, 90.54 °W | Change Station

Current weather conditions updated 8 seconds ago

Scattered Clouds
Nubes dispersas
84.9 ° F
Sensación térmica 97 ° F
N
9.2
Viento Variable Viento desde OSO
Gusts 9.2 mph

Mañana se prevé una temperatura muy similar a la de hoy. Formación de tormentas por la tarde..

Hoy
Alta -- | Baja -- ° F
--% Posibilidad de precipitaciones
Ayer
Alta -- | Baja -- ° F
Precip. -- pul
6:37 AM 7:39 PM
Creciente, 22% visible
Presión 29.90 pul
Visibilidad 7.0 Millas
Nubes Nubes dispersas 8000 ft
Índice de calor 97 ° F
Punto de rocío 78 ° F
Humedad 81%
Precipitaciones 0.00 pul
Espesor de la nieve No disponible.
UV 0 de una escala de 12
Polen No disponible.
Calidad del aire No disponible.
Flu Activity No disponible.
METAR MMCP 010042Z 34010G20KT 7SM SCT080 30/26 A2990 RMK 8/070

More Conditions Fewer Conditions

Presión 29.90 pul
Visibilidad 7.0 Millas
Nubes Nubes dispersas 8000 ft
Índice de calor 97 ° F
Punto de rocío 78 ° F
Humedad 81%
Precipitaciones 0.00 pul
Espesor de la nieve No disponible.
UV 0 de una escala de 12
Polen No disponible.
Calidad del aire No disponible.
Flu Activity No disponible.
METAR MMCP 010042Z 34010G20KT 7SM SCT080 30/26 A2990 RMK 8/070

More Conditions Fewer Conditions

10-Day Weather Forecast

Almanac

Astronomía

Jul. 31, 2014 Salida Puesta
Hora real 6:37 AM CDT 7:39 PM CDT
Crepúsculo civil 6:13 AM CDT 8:02 PM CDT
Crepúsculo náutico 5:46 AM CDT 8:30 PM CDT
Crepúsculo astronómico 5:17 AM CDT 8:58 PM CDT
Luna 10:23 AM CDT (7/31) 10:36 PM CDT (7/31)
Horas de luz 13h 48m
Horas de luz
13h 01m
Tomorrow will be 0m 49s shorter.
Creciente, 22% of the Moon is Illuminated
Hoy
Creciente
Ago 3
Cuarto creciente
Ago 10
Luna llena
Ago 17
Cuarto menguante
Ago 25
Nueva

Extremos de hoy

Máximos del país Bajas del país

Community

WunderPhotos

Upload Photos

1,739,490 ¡fotos cargadas!

Nearby

Calidad del aire

Not available.

Grosos de nieve

Not available.

Actividad de terremotos

Ciudad Distance Mag. Tiempo y dato
No hay informes recientes de la actividad sísmica.
Magnitud mínima muestra es 2,5.

Temperaturas de aguas costeras

Lugar Temperatura
Sin partes meteorológicos de las estaciones

Estaciones meteorológicas cercanas

Ubicación de la estación Temp. Índice de calor Punto de rocío Humedad Viento Precip. Alt Actualizado Tipo
XE3AHB Radio, Sn Fco de Campeche 84.9 ° F 97 ° F 78 ° F 81% OSO  a  9.2 mph 0.00 pul / hr 102 ft 8:42 PM CDT Rapid Fire

Show More Stations Show Fewer Stations